createdAt,value
2017-09-20T00:02:00.561Z,70.57
2017-09-20T00:07:02.623Z,70.64
2017-09-20T00:12:04.692Z,70.63
2017-09-20T00:17:14.414Z,70.63
2017-09-20T00:22:16.453Z,70.81
2017-09-20T00:27:18.471Z,71.13
2017-09-20T00:32:20.519Z,71.41
2017-09-20T00:37:22.563Z,71.64
2017-09-20T00:42:24.627Z,71.66
2017-09-20T00:47:26.652Z,71.35
2017-09-20T00:52:28.653Z,71.35
2017-09-20T00:57:31.611Z,71.17
2017-09-20T01:02:33.662Z,71.12
2017-09-20T01:07:35.675Z,71.32
2017-09-20T01:12:37.672Z,71.37
2017-09-20T01:17:40.437Z,71.77
2017-09-20T01:23:01.190Z,71.83
2017-09-20T01:28:03.245Z,72.08
2017-09-20T01:33:05.377Z,72.03
2017-09-20T01:38:07.465Z,71.96
2017-09-20T01:43:09.542Z,71.83
2017-09-20T01:48:11.545Z,72.13
2017-09-20T01:53:13.513Z,72.10
2017-09-20T01:58:15.517Z,72.17
2017-09-20T02:03:17.501Z,71.83
2017-09-20T02:08:19.481Z,71.77
2017-09-20T02:13:22.420Z,71.67
2017-09-20T02:18:24.519Z,71.62
2017-09-20T02:23:26.455Z,71.66
2017-09-20T02:28:28.488Z,71.80
2017-09-20T02:33:30.444Z,71.80
2017-09-20T02:38:33.487Z,71.74
2017-09-20T02:43:35.507Z,71.75
2017-09-20T02:48:37.536Z,71.68
2017-09-20T02:53:39.550Z,71.48
2017-09-20T02:58:42.355Z,71.05
2017-09-20T03:03:44.342Z,70.93
2017-09-20T03:08:46.299Z,70.80
2017-09-20T03:13:50.974Z,70.62
2017-09-20T03:18:53.440Z,70.66
2017-09-20T03:23:58.884Z,70.65
2017-09-20T03:29:01.068Z,70.63
2017-09-20T03:34:03.101Z,70.98
2017-09-20T03:39:06.016Z,71.39
2017-09-20T03:44:08.030Z,71.88
2017-09-20T03:49:12.112Z,71.65
2017-09-20T03:54:24.600Z,71.58
2017-09-20T03:59:31.848Z,71.37
2017-09-20T04:04:39.288Z,71.10
2017-09-20T04:09:46.137Z,71.05
2017-09-20T04:14:51.875Z,71.28
2017-09-20T04:19:57.262Z,71.46
2017-09-20T04:24:59.572Z,71.29
2017-09-20T04:30:05.131Z,71.27
2017-09-20T04:35:09.653Z,71.22
2017-09-20T04:40:13.574Z,71.31
2017-09-20T04:45:19.506Z,71.31
2017-09-20T04:50:25.722Z,71.62
2017-09-20T04:55:27.721Z,71.40
2017-09-20T05:00:34.484Z,71.45
2017-09-20T05:05:42.369Z,71.45
2017-09-20T05:10:47.908Z,71.63
2017-09-20T05:15:52.922Z,71.79
2017-09-20T05:20:57.291Z,71.64
2017-09-20T05:26:04.328Z,71.33
2017-09-20T05:31:09.751Z,71.25
2017-09-20T05:36:14.732Z,71.10
2017-09-20T05:41:19.642Z,71.07
2017-09-20T05:46:26.197Z,71.25
2017-09-20T05:51:33.301Z,71.10
2017-09-20T05:56:40.610Z,71.26
2017-09-20T06:01:49.151Z,70.93
2017-09-20T06:06:56.263Z,71.05
2017-09-20T06:12:03.900Z,71.02
2017-09-20T06:17:16.544Z,71.08
2017-09-20T06:22:23.109Z,71.09
2017-09-20T06:27:27.498Z,71.53
2017-09-20T06:32:31.443Z,71.33
2017-09-20T06:37:35.828Z,70.72
2017-09-20T07:21:21.372Z,76.69
2017-09-20T07:26:26.015Z,70.22
2017-09-20T07:31:32.848Z,66.99
2017-09-20T07:36:38.333Z,66.72
2017-09-20T07:41:46.738Z,66.33
2017-09-20T07:46:52.116Z,65.73
2017-09-20T07:51:57.754Z,64.91
2017-09-20T07:57:05.767Z,64.20
2017-09-20T08:02:15.075Z,63.38
2017-09-20T08:07:21.850Z,63.50
2017-09-20T08:12:28.814Z,62.73
2017-09-20T08:17:33.591Z,62.38
2017-09-20T08:22:41.107Z,61.59
2017-09-20T08:27:46.029Z,60.38
2017-09-20T08:32:52.398Z,58.90
2017-09-20T08:37:57.929Z,58.46
2017-09-20T08:43:03.879Z,58.04
2017-09-20T08:53:21.713Z,57.70
2017-09-20T08:58:29.656Z,57.29
2017-09-20T09:03:35.869Z,57.13
2017-09-20T09:08:40.582Z,56.89
2017-09-20T09:13:46.019Z,57.02
2017-09-20T09:18:51.978Z,56.45
2017-09-20T09:23:59.354Z,56.51
2017-09-20T09:29:06.387Z,56.55
2017-09-20T09:34:11.795Z,56.14
2017-09-20T09:39:16.027Z,55.63
2017-09-20T09:44:20.918Z,55.15
2017-09-20T09:49:25.857Z,55.17
2017-09-20T09:54:29.438Z,55.35
2017-09-20T09:59:34.388Z,54.47
2017-09-20T10:04:39.451Z,54.79
2017-09-20T10:09:42.784Z,54.40
2017-09-20T10:14:47.721Z,54.27
2017-09-20T10:19:54.077Z,52.95
2017-09-20T10:24:58.726Z,53.38
2017-09-20T10:30:05.662Z,53.13
2017-09-20T10:35:11.727Z,52.75
2017-09-20T10:40:17.610Z,53.21
2017-09-20T10:45:22.689Z,53.15
2017-09-20T10:50:29.821Z,51.94
2017-09-20T10:55:39.306Z,51.37
2017-09-20T11:00:46.075Z,51.11
2017-09-20T11:05:52.302Z,52.02
2017-09-20T11:10:58.404Z,52.60
2017-09-20T11:16:03.497Z,51.99
2017-09-20T11:21:08.827Z,52.10
2017-09-20T11:26:16.569Z,52.27
2017-09-20T11:31:23.451Z,53.14
2017-09-20T11:36:28.581Z,53.07
2017-09-20T11:41:34.743Z,51.70
2017-09-20T11:46:41.777Z,52.59
2017-09-20T11:51:48.536Z,52.20
2017-09-20T11:56:56.201Z,52.60
2017-09-20T12:02:02.254Z,52.73
2017-09-20T12:07:10.734Z,51.57
2017-09-20T12:12:17.725Z,51.35
2017-09-20T12:17:27.900Z,51.61
2017-09-20T12:22:37.042Z,51.93
2017-09-20T12:27:44.354Z,52.32
2017-09-20T12:32:49.176Z,51.96
2017-09-20T12:37:54.822Z,51.90
2017-09-20T12:42:59.780Z,52.21
2017-09-20T12:48:02.617Z,52.46
2017-09-20T12:53:07.200Z,52.36
2017-09-20T12:58:09.446Z,51.68
2017-09-20T13:03:14.772Z,51.54
2017-09-20T13:08:22.933Z,52.20
2017-09-20T13:13:36.088Z,52.56
2017-09-20T13:18:41.188Z,52.10
2017-09-20T13:23:46.368Z,52.34
2017-09-20T13:28:58.598Z,52.95
2017-09-20T13:34:10.249Z,52.71
2017-09-20T13:39:24.953Z,51.86
2017-09-20T13:44:30.837Z,53.12
2017-09-20T13:49:42.517Z,53.70
2017-09-20T13:54:46.505Z,53.78
2017-09-20T13:59:53.511Z,53.73
2017-09-20T14:04:58.941Z,52.92
2017-09-20T14:10:06.348Z,52.98
2017-09-20T14:15:16.962Z,52.80
2017-09-20T14:20:22.756Z,52.75
2017-09-20T14:25:32.498Z,52.08
2017-09-20T14:30:39.970Z,52.27
2017-09-20T14:35:46.493Z,52.39
2017-09-20T14:40:54.425Z,52.43
2017-09-20T14:46:00.330Z,53.84
2017-09-20T14:51:06.939Z,54.77
2017-09-20T14:56:10.811Z,54.56
2017-09-20T15:01:16.059Z,54.66
2017-09-20T15:06:18.839Z,54.13
2017-09-20T15:11:21.619Z,54.06
2017-09-20T15:16:23.639Z,53.76
2017-09-20T15:21:27.357Z,53.40
2017-09-20T15:26:29.572Z,53.66
2017-09-20T15:31:31.674Z,53.61
2017-09-20T15:36:33.627Z,54.13
2017-09-20T15:41:35.595Z,54.08
2017-09-20T15:46:37.519Z,54.79
2017-09-20T15:51:40.266Z,55.82
2017-09-20T15:56:42.889Z,55.65
2017-09-20T16:01:51.505Z,56.10
2017-09-20T16:06:54.688Z,55.73
2017-09-20T16:11:59.215Z,55.43
2017-09-20T16:17:04.363Z,55.47
2017-09-20T16:22:06.994Z,55.71
2017-09-20T16:27:09.842Z,56.24
2017-09-20T16:32:13.630Z,56.79
2017-09-20T16:37:17.471Z,57.47
2017-09-20T16:42:19.470Z,57.90
2017-09-20T16:47:25.345Z,57.78
2017-09-20T16:52:28.985Z,57.96
2017-09-20T16:57:34.347Z,58.35
2017-09-20T17:02:40.889Z,58.79
2017-09-20T17:07:46.095Z,59.20
2017-09-20T17:12:53.562Z,59.59
2017-09-20T17:17:58.015Z,60.08
2017-09-20T17:23:03.376Z,60.38
2017-09-20T17:28:11.257Z,60.59
2017-09-20T17:33:14.823Z,60.74
2017-09-20T17:38:16.992Z,61.06
2017-09-20T17:43:23.101Z,61.54
2017-09-20T17:48:29.168Z,61.85
2017-09-20T17:53:37.008Z,62.34
2017-09-20T17:58:40.292Z,62.69
2017-09-20T18:03:42.943Z,63.26
2017-09-20T18:08:46.865Z,63.96
2017-09-20T18:13:52.142Z,64.53
2017-09-20T18:18:54.239Z,64.90
2017-09-20T18:23:56.216Z,65.41
2017-09-20T18:29:00.979Z,65.79
2017-09-20T18:34:05.531Z,66.41
2017-09-20T18:39:08.785Z,67.01
2017-09-20T18:44:11.793Z,67.03
2017-09-20T18:49:19.200Z,67.17
2017-09-20T18:54:21.459Z,67.26
2017-09-20T18:59:23.396Z,67.32
2017-09-20T19:04:31.605Z,67.29
2017-09-20T19:09:38.214Z,67.41
2017-09-20T19:14:40.551Z,67.62
2017-09-20T19:19:48.591Z,68.06
2017-09-20T19:24:56.691Z,68.47
2017-09-20T19:29:59.377Z,68.15
2017-09-20T19:35:03.100Z,68.88
2017-09-20T19:40:06.281Z,68.19
2017-09-20T19:45:08.274Z,67.81
2017-09-20T19:50:12.255Z,67.97
2017-09-20T19:55:17.683Z,68.51
2017-09-20T20:00:21.998Z,68.49
2017-09-20T20:05:25.930Z,68.61
2017-09-20T20:10:29.180Z,68.60
2017-09-20T20:15:34.459Z,68.86
2017-09-20T20:20:38.977Z,69.23
2017-09-20T20:25:42.051Z,68.84
2017-09-20T20:30:48.688Z,68.39
2017-09-20T20:35:55.019Z,69.22
2017-09-20T20:41:00.179Z,69.29
2017-09-20T20:46:05.595Z,69.26
2017-09-20T20:51:10.952Z,69.79
2017-09-20T20:56:18.023Z,70.60
2017-09-20T21:01:23.747Z,70.71
2017-09-20T21:06:28.942Z,70.30
2017-09-20T21:11:32.987Z,70.28
2017-09-20T21:16:38.950Z,69.95
2017-09-20T21:21:45.049Z,70.09
2017-09-20T21:26:51.333Z,70.19
2017-09-20T21:31:55.367Z,70.35
2017-09-20T21:37:02.875Z,70.33
2017-09-20T21:42:07.785Z,70.42
2017-09-20T21:47:12.075Z,70.53
2017-09-20T21:52:18.236Z,70.19
2017-09-20T21:57:24.187Z,69.66
2017-09-20T22:02:26.477Z,69.20
2017-09-20T22:07:28.925Z,69.84
2017-09-20T22:12:32.613Z,70.25
2017-09-20T22:17:53.418Z,70.17
2017-09-20T22:23:15.255Z,69.75
2017-09-20T22:28:19.193Z,69.85
2017-09-20T22:33:21.243Z,69.50
2017-09-20T22:38:24.374Z,69.89
2017-09-20T22:43:26.679Z,69.86
2017-09-20T22:48:30.022Z,70.14
2017-09-20T22:53:32.105Z,70.05
2017-09-20T22:58:34.890Z,69.63
2017-09-20T23:03:37.180Z,69.83
2017-09-20T23:08:39.171Z,70.27
2017-09-20T23:13:42.476Z,70.39
2017-09-20T23:18:44.697Z,70.29
2017-09-20T23:23:46.964Z,70.21
2017-09-20T23:28:50.278Z,69.73
2017-09-20T23:33:52.828Z,69.99
2017-09-20T23:38:55.588Z,69.79
2017-09-20T23:43:57.535Z,70.01
2017-09-20T23:49:00.118Z,70.18
2017-09-20T23:54:02.062Z,70.35
2017-09-20T23:59:04.031Z,70.34
